SHT13WX EGLL-EGJB
Flight info
| Callsign | SHT13WX |
|---|---|
| Flight time | 0h 32m |
| Altitude | 20000 |
| Route | GASGU N514 EVTES/N0355F190 N621 SAM/N0350F180 N63 LELNA |
| Aircraft | A20N/M-SDGHIJ1LRWXY/SB1 |
Departure
| Time | 2026-05-04 11:17 |
|---|---|
| Airport | London Heathrow Airport (EGLL) |
Arrival
| Time | 2026-05-04 11:49 |
|---|---|
| Airport | Guernsey Airport (EGJB) |
| Time | Latitude | Longitude | Altitude | Speed | Heading |
|---|---|---|---|---|---|
| 2026-05-04 10:51 | 51.47399 | -0.48583 | 81 ft | 0 kts | 270° |
| 2026-05-04 10:59 | 51.47399 | -0.48577 | 81 ft | 2 kts | 270° |
| 2026-05-04 10:59 | 51.47399 | -0.48552 | 81 ft | 2 kts | 270° |
| 2026-05-04 11:00 | 51.47399 | -0.48528 | 81 ft | 2 kts | 270° |
| 2026-05-04 11:01 | 51.47427 | -0.48476 | 81 ft | 0 kts | 176° |
| 2026-05-04 11:05 | 51.46943 | -0.48472 | 80 ft | 12 kts | 180° |
| 2026-05-04 11:06 | 51.46859 | -0.48471 | 80 ft | 11 kts | 180° |
| 2026-05-04 11:06 | 51.46781 | -0.48469 | 80 ft | 10 kts | 180° |
| 2026-05-04 11:06 | 51.46711 | -0.48469 | 80 ft | 7 kts | 181° |
| 2026-05-04 11:06 | 51.46665 | -0.48459 | 80 ft | 6 kts | 152° |
| 2026-05-04 11:08 | 51.46654 | -0.47448 | 81 ft | 18 kts | 90° |
| 2026-05-04 11:10 | 51.46658 | -0.46153 | 85 ft | 15 kts | 90° |
| 2026-05-04 11:12 | 51.46663 | -0.44927 | 92 ft | 16 kts | 91° |
| 2026-05-04 11:12 | 51.46662 | -0.44744 | 92 ft | 16 kts | 90° |
| 2026-05-04 11:12 | 51.46664 | -0.44560 | 91 ft | 17 kts | 89° |
| 2026-05-04 11:12 | 51.46664 | -0.44425 | 90 ft | 11 kts | 91° |
| 2026-05-04 11:13 | 51.46665 | -0.44307 | 89 ft | 5 kts | 90° |
| 2026-05-04 11:13 | 51.46664 | -0.44244 | 88 ft | 7 kts | 91° |
| 2026-05-04 11:13 | 51.46665 | -0.44202 | 87 ft | 0 kts | 89° |
| 2026-05-04 11:14 | 51.46665 | -0.44181 | 87 ft | 4 kts | 89° |
| 2026-05-04 11:16 | 51.46492 | -0.44107 | 86 ft | 0 kts | 271° |
| 2026-05-04 11:16 | 51.46492 | -0.44152 | 87 ft | 27 kts | 271° |
| 2026-05-04 11:16 | 51.46489 | -0.44928 | 90 ft | 109 kts | 270° |
| 2026-05-04 11:17 | 51.46483 | -0.46361 | 137 ft | 162 kts | 270° |
| 2026-05-04 11:17 | 51.46482 | -0.48150 | 786 ft | 167 kts | 272° |
| 2026-05-04 11:19 | 51.46102 | -0.65281 | 5831 ft | 275 kts | 256° |
| 2026-05-04 11:19 | 51.45837 | -0.67964 | 6721 ft | 280 kts | 264° |
| 2026-05-04 11:19 | 51.45686 | -0.70912 | 7747 ft | 282 kts | 265° |
| 2026-05-04 11:19 | 51.45597 | -0.73985 | 8821 ft | 283 kts | 266° |
| 2026-05-04 11:20 | 51.45528 | -0.76985 | 9781 ft | 286 kts | 266° |
| 2026-05-04 11:20 | 51.45475 | -0.79400 | 10505 ft | 289 kts | 266° |
| 2026-05-04 11:20 | 51.45348 | -0.82814 | 11160 ft | 304 kts | 259° |
| 2026-05-04 11:20 | 51.44573 | -0.86035 | 11635 ft | 321 kts | 236° |
| 2026-05-04 11:22 | 51.30322 | -0.98988 | 16881 ft | 363 kts | 209° |
| 2026-05-04 11:22 | 51.28161 | -1.01042 | 17556 ft | 367 kts | 212° |
| 2026-05-04 11:23 | 51.26029 | -1.03239 | 17930 ft | 368 kts | 212° |
| 2026-05-04 11:23 | 51.23892 | -1.05449 | 18008 ft | 368 kts | 212° |
| 2026-05-04 11:24 | 51.11299 | -1.18412 | 18006 ft | 368 kts | 212° |
| 2026-05-04 11:25 | 51.09067 | -1.20699 | 17993 ft | 369 kts | 212° |
| 2026-05-04 11:25 | 51.06924 | -1.22895 | 17985 ft | 368 kts | 212° |
| 2026-05-04 11:25 | 51.04791 | -1.25076 | 17984 ft | 369 kts | 212° |
| 2026-05-04 11:26 | 51.00452 | -1.29505 | 17995 ft | 368 kts | 212° |
| 2026-05-04 11:27 | 50.85460 | -1.42573 | 18005 ft | 367 kts | 206° |
| 2026-05-04 11:28 | 50.83519 | -1.44120 | 18009 ft | 367 kts | 206° |
| 2026-05-04 11:28 | 50.81692 | -1.45574 | 17999 ft | 367 kts | 206° |
| 2026-05-04 11:28 | 50.79082 | -1.47649 | 18001 ft | 367 kts | 206° |
| 2026-05-04 11:28 | 50.76920 | -1.49365 | 18003 ft | 367 kts | 206° |
| 2026-05-04 11:29 | 50.74612 | -1.51197 | 18012 ft | 367 kts | 206° |
| 2026-05-04 11:29 | 50.72342 | -1.52996 | 18009 ft | 367 kts | 206° |
| 2026-05-04 11:29 | 50.70135 | -1.54743 | 18003 ft | 367 kts | 206° |
| 2026-05-04 11:29 | 50.67873 | -1.56533 | 18002 ft | 367 kts | 206° |
| 2026-05-04 11:31 | 50.52213 | -1.68862 | 18003 ft | 367 kts | 205° |
| 2026-05-04 11:33 | 50.36373 | -1.81241 | 17992 ft | 369 kts | 205° |
| 2026-05-04 11:33 | 50.34076 | -1.83030 | 17995 ft | 369 kts | 205° |
| 2026-05-04 11:33 | 50.31811 | -1.84793 | 17993 ft | 369 kts | 205° |
| 2026-05-04 11:34 | 50.29570 | -1.86535 | 18004 ft | 368 kts | 205° |
| 2026-05-04 11:34 | 50.27351 | -1.88258 | 18003 ft | 368 kts | 205° |
| 2026-05-04 11:34 | 50.25019 | -1.90066 | 18008 ft | 368 kts | 205° |
| 2026-05-04 11:34 | 50.22752 | -1.91823 | 18003 ft | 368 kts | 205° |
| 2026-05-04 11:35 | 50.20439 | -1.93611 | 18002 ft | 368 kts | 205° |
| 2026-05-04 11:35 | 50.18153 | -1.95376 | 18007 ft | 369 kts | 205° |
| 2026-05-04 11:35 | 50.15870 | -1.97137 | 18014 ft | 369 kts | 205° |
| 2026-05-04 11:35 | 50.13580 | -1.98902 | 18021 ft | 369 kts | 205° |
| 2026-05-04 11:36 | 50.11274 | -2.00676 | 18015 ft | 369 kts | 205° |
| 2026-05-04 11:36 | 50.08964 | -2.02452 | 18017 ft | 368 kts | 205° |
| 2026-05-04 11:36 | 50.06668 | -2.04216 | 18017 ft | 368 kts | 205° |
| 2026-05-04 11:36 | 50.04366 | -2.05982 | 18016 ft | 368 kts | 205° |
| 2026-05-04 11:37 | 50.02089 | -2.07726 | 18000 ft | 369 kts | 205° |
| 2026-05-04 11:37 | 49.99762 | -2.09515 | 17651 ft | 367 kts | 206° |
| 2026-05-04 11:37 | 49.97521 | -2.11442 | 16786 ft | 374 kts | 210° |
| 2026-05-04 11:37 | 49.95329 | -2.13619 | 15962 ft | 376 kts | 212° |
| 2026-05-04 11:38 | 49.93173 | -2.15815 | 15340 ft | 373 kts | 212° |
| 2026-05-04 11:38 | 49.91008 | -2.18019 | 14750 ft | 369 kts | 212° |
| 2026-05-04 11:38 | 49.88883 | -2.20153 | 14120 ft | 365 kts | 209° |
| 2026-05-04 11:38 | 49.86541 | -2.21572 | 13499 ft | 360 kts | 191° |
| 2026-05-04 11:39 | 49.84145 | -2.22003 | 12923 ft | 356 kts | 185° |
| 2026-05-04 11:39 | 49.81746 | -2.22393 | 12364 ft | 349 kts | 186° |
| 2026-05-04 11:40 | 49.69471 | -2.24538 | 9582 ft | 259 kts | 186° |
| 2026-05-04 11:41 | 49.67688 | -2.24861 | 9096 ft | 252 kts | 186° |
| 2026-05-04 11:41 | 49.65971 | -2.25177 | 8619 ft | 247 kts | 186° |
| 2026-05-04 11:41 | 49.64306 | -2.25481 | 8144 ft | 241 kts | 186° |
| 2026-05-04 11:41 | 49.62652 | -2.25783 | 7659 ft | 235 kts | 186° |
| 2026-05-04 11:42 | 49.61057 | -2.26075 | 7206 ft | 229 kts | 186° |
| 2026-05-04 11:42 | 49.59490 | -2.26366 | 6815 ft | 221 kts | 186° |
| 2026-05-04 11:42 | 49.57996 | -2.26649 | 6435 ft | 214 kts | 186° |
| 2026-05-04 11:42 | 49.56538 | -2.26929 | 6090 ft | 207 kts | 186° |
| 2026-05-04 11:43 | 49.55139 | -2.27201 | 5782 ft | 199 kts | 186° |
| 2026-05-04 11:43 | 49.53793 | -2.27467 | 5474 ft | 193 kts | 186° |
| 2026-05-04 11:43 | 49.52464 | -2.27731 | 5181 ft | 193 kts | 186° |
| 2026-05-04 11:43 | 49.51126 | -2.27992 | 4842 ft | 195 kts | 186° |
| 2026-05-04 11:44 | 49.49784 | -2.28251 | 4556 ft | 194 kts | 186° |
| 2026-05-04 11:44 | 49.48445 | -2.28510 | 4306 ft | 193 kts | 188° |
| 2026-05-04 11:44 | 49.47220 | -2.29258 | 4007 ft | 195 kts | 221° |
| 2026-05-04 11:44 | 49.46323 | -2.30804 | 3748 ft | 195 kts | 233° |
| 2026-05-04 11:45 | 49.45569 | -2.32530 | 3498 ft | 194 kts | 239° |
| 2026-05-04 11:45 | 49.44915 | -2.34272 | 3438 ft | 179 kts | 241° |
| 2026-05-04 11:45 | 49.44430 | -2.35997 | 3271 ft | 175 kts | 253° |
| 2026-05-04 11:45 | 49.44173 | -2.37791 | 3040 ft | 174 kts | 262° |
| 2026-05-04 11:46 | 49.44061 | -2.39654 | 2807 ft | 173 kts | 268° |
| 2026-05-04 11:46 | 49.44017 | -2.41497 | 2579 ft | 172 kts | 270° |
| 2026-05-04 11:46 | 49.43979 | -2.43325 | 2354 ft | 172 kts | 269° |
| 2026-05-04 11:46 | 49.43930 | -2.45153 | 2129 ft | 171 kts | 269° |
| 2026-05-04 11:47 | 49.43876 | -2.46939 | 1907 ft | 170 kts | 269° |
| 2026-05-04 11:47 | 49.43821 | -2.48761 | 1681 ft | 169 kts | 268° |
| 2026-05-04 11:47 | 49.43769 | -2.50506 | 1479 ft | 156 kts | 268° |
| 2026-05-04 11:47 | 49.43725 | -2.52085 | 1260 ft | 143 kts | 267° |
| 2026-05-04 11:48 | 49.43677 | -2.53560 | 1058 ft | 134 kts | 267° |
| 2026-05-04 11:48 | 49.43635 | -2.54981 | 914 ft | 133 kts | 268° |
| 2026-05-04 11:48 | 49.43595 | -2.56391 | 716 ft | 132 kts | 269° |
| 2026-05-04 11:48 | 49.43568 | -2.57796 | 557 ft | 132 kts | 268° |
| 2026-05-04 11:49 | 49.43525 | -2.59200 | 367 ft | 131 kts | 267° |
| 2026-05-04 11:49 | 49.43492 | -2.60351 | 318 ft | 69 kts | 268° |
| 2026-05-04 11:49 | 49.43478 | -2.60864 | 305 ft | 38 kts | 267° |
| 2026-05-04 11:49 | 49.43469 | -2.61193 | 300 ft | 21 kts | 269° |
| 2026-05-04 11:50 | 49.43465 | -2.61326 | 299 ft | 8 kts | 261° |
| 2026-05-04 11:50 | 49.43416 | -2.61345 | 299 ft | 9 kts | 147° |
| 2026-05-04 11:50 | 49.43371 | -2.61273 | 299 ft | 9 kts | 124° |
| 2026-05-04 11:50 | 49.43359 | -2.61178 | 300 ft | 9 kts | 91° |
| 2026-05-04 11:51 | 49.43360 | -2.61075 | 301 ft | 9 kts | 89° |
| 2026-05-04 11:51 | 49.43364 | -2.60972 | 303 ft | 9 kts | 86° |
| 2026-05-04 11:51 | 49.43360 | -2.60873 | 304 ft | 9 kts | 99° |
| 2026-05-04 11:51 | 49.43349 | -2.60782 | 307 ft | 7 kts | 102° |
| 2026-05-04 11:52 | 49.43338 | -2.60704 | 308 ft | 7 kts | 102° |
| 2026-05-04 11:52 | 49.43330 | -2.60633 | 310 ft | 6 kts | 100° |
| 2026-05-04 11:52 | 49.43326 | -2.60562 | 311 ft | 7 kts | 89° |
| 2026-05-04 11:52 | 49.43328 | -2.60476 | 314 ft | 8 kts | 88° |
| 2026-05-04 11:53 | 49.43331 | -2.60393 | 316 ft | 6 kts | 88° |
| 2026-05-04 11:53 | 49.43333 | -2.60334 | 318 ft | 4 kts | 88° |
| 2026-05-04 11:53 | 49.43334 | -2.60270 | 320 ft | 7 kts | 89° |
| 2026-05-04 11:53 | 49.43336 | -2.60168 | 323 ft | 11 kts | 88° |
| 2026-05-04 11:55 | 49.43296 | -2.59688 | 332 ft | 4 kts | 179° |
| 2026-05-04 11:55 | 49.43271 | -2.59687 | 332 ft | 1 kts | 178° |
| 2026-05-04 11:56 | 49.43263 | -2.59687 | 333 ft | 0 kts | 178° |
| 2026-05-04 11:56 | 49.43259 | -2.59686 | 333 ft | 0 kts | 178° |